sensor_id;sensor_type;location;lat;lon;timestamp;P1;durP1;ratioP1;P2;durP2;ratioP2
40152;SDS011;26371;56.992;23.912;2022-12-10T00:01:47;24.17;;;8.55;;
40152;SDS011;26371;56.992;23.912;2022-12-10T00:06:45;17.87;;;6.67;;
40152;SDS011;26371;56.992;23.912;2022-12-10T00:09:15;20.50;;;7.93;;
40152;SDS011;26371;56.992;23.912;2022-12-10T00:11:46;20.55;;;7.85;;
40152;SDS011;26371;56.992;23.912;2022-12-10T00:14:18;17.45;;;7.55;;
40152;SDS011;26371;56.992;23.912;2022-12-10T00:16:47;22.92;;;8.02;;
40152;SDS011;26371;56.992;23.912;2022-12-10T00:19:15;16.52;;;6.53;;
40152;SDS011;26371;56.992;23.912;2022-12-10T00:21:44;19.90;;;7.25;;
40152;SDS011;26371;56.992;23.912;2022-12-10T00:24:13;18.30;;;6.63;;
40152;SDS011;26371;56.992;23.912;2022-12-10T00:26:43;18.92;;;6.53;;
40152;SDS011;26371;56.992;23.912;2022-12-10T00:29:12;16.05;;;6.25;;
40152;SDS011;26371;56.992;23.912;2022-12-10T00:31:42;16.50;;;6.57;;
40152;SDS011;26371;56.992;23.912;2022-12-10T00:34:14;17.52;;;7.40;;
40152;SDS011;26371;56.992;23.912;2022-12-10T00:36:43;17.90;;;6.97;;
40152;SDS011;26371;56.992;23.912;2022-12-10T00:39:17;17.85;;;6.55;;
40152;SDS011;26371;56.992;23.912;2022-12-10T00:41:47;16.85;;;7.07;;
40152;SDS011;26371;56.992;23.912;2022-12-10T00:44:20;16.30;;;6.85;;
40152;SDS011;26371;56.992;23.912;2022-12-10T00:46:51;16.45;;;7.10;;
40152;SDS011;26371;56.992;23.912;2022-12-10T00:49:19;20.60;;;7.20;;
40152;SDS011;26371;56.992;23.912;2022-12-10T00:51:51;25.20;;;8.48;;
40152;SDS011;26371;56.992;23.912;2022-12-10T00:54:19;22.48;;;7.75;;
40152;SDS011;26371;56.992;23.912;2022-12-10T00:56:50;20.42;;;7.72;;
40152;SDS011;26371;56.992;23.912;2022-12-10T00:59:18;22.60;;;7.93;;
40152;SDS011;26371;56.992;23.912;2022-12-10T01:01:47;19.42;;;7.93;;
40152;SDS011;26371;56.992;23.912;2022-12-10T01:04:20;22.60;;;9.23;;
40152;SDS011;26371;56.992;23.912;2022-12-10T01:06:49;23.38;;;9.13;;
40152;SDS011;26371;56.992;23.912;2022-12-10T01:09:19;23.50;;;8.30;;
40152;SDS011;26371;56.992;23.912;2022-12-10T01:11:52;22.63;;;8.75;;
40152;SDS011;26371;56.992;23.912;2022-12-10T01:14:28;19.65;;;7.65;;
40152;SDS011;26371;56.992;23.912;2022-12-10T01:16:59;20.52;;;8.57;;
40152;SDS011;26371;56.992;23.912;2022-12-10T01:19:31;24.35;;;8.70;;
40152;SDS011;26371;56.992;23.912;2022-12-10T01:22:07;24.20;;;9.68;;
40152;SDS011;26371;56.992;23.912;2022-12-10T01:24:36;26.83;;;9.55;;
40152;SDS011;26371;56.992;23.912;2022-12-10T01:27:05;20.10;;;8.25;;
40152;SDS011;26371;56.992;23.912;2022-12-10T01:29:34;26.17;;;9.77;;
40152;SDS011;26371;56.992;23.912;2022-12-10T01:32:07;29.70;;;10.43;;
40152;SDS011;26371;56.992;23.912;2022-12-10T01:34:40;31.02;;;11.48;;
40152;SDS011;26371;56.992;23.912;2022-12-10T01:37:08;30.30;;;11.05;;
40152;SDS011;26371;56.992;23.912;2022-12-10T01:39:37;35.63;;;12.77;;
40152;SDS011;26371;56.992;23.912;2022-12-10T01:42:09;31.88;;;11.68;;
40152;SDS011;26371;56.992;23.912;2022-12-10T01:44:57;37.45;;;12.43;;
40152;SDS011;26371;56.992;23.912;2022-12-10T01:47:38;40.17;;;12.85;;
40152;SDS011;26371;56.992;23.912;2022-12-10T01:50:11;32.75;;;11.65;;
40152;SDS011;26371;56.992;23.912;2022-12-10T01:52:43;38.65;;;12.55;;
40152;SDS011;26371;56.992;23.912;2022-12-10T01:58:16;34.33;;;11.82;;
40152;SDS011;26371;56.992;23.912;2022-12-10T02:00:51;35.50;;;11.15;;
40152;SDS011;26371;56.992;23.912;2022-12-10T02:03:35;34.58;;;11.25;;
40152;SDS011;26371;56.992;23.912;2022-12-10T02:06:24;26.15;;;9.88;;
40152;SDS011;26371;56.992;23.912;2022-12-10T02:09:11;28.95;;;9.50;;
40152;SDS011;26371;56.992;23.912;2022-12-10T02:11:48;32.40;;;11.10;;
40152;SDS011;26371;56.992;23.912;2022-12-10T02:14:32;40.25;;;13.80;;
40152;SDS011;26371;56.992;23.912;2022-12-10T02:17:24;37.85;;;13.30;;
40152;SDS011;26371;56.992;23.912;2022-12-10T02:20:00;45.30;;;15.00;;
40152;SDS011;26371;56.992;23.912;2022-12-10T02:22:41;50.50;;;15.00;;
40152;SDS011;26371;56.992;23.912;2022-12-10T02:25:14;32.50;;;11.73;;
40152;SDS011;26371;56.992;23.912;2022-12-10T02:27:48;34.45;;;12.82;;
40152;SDS011;26371;56.992;23.912;2022-12-10T02:30:26;37.85;;;12.25;;
40152;SDS011;26371;56.992;23.912;2022-12-10T02:32:56;31.20;;;10.13;;
40152;SDS011;26371;56.992;23.912;2022-12-10T02:35:30;28.65;;;9.30;;
40152;SDS011;26371;56.992;23.912;2022-12-10T02:38:03;26.63;;;9.98;;
40152;SDS011;26371;56.992;23.912;2022-12-10T02:40:36;25.95;;;9.75;;
40152;SDS011;26371;56.992;23.912;2022-12-10T02:43:08;19.77;;;8.05;;
40152;SDS011;26371;56.992;23.912;2022-12-10T02:45:41;19.90;;;7.90;;
40152;SDS011;26371;56.992;23.912;2022-12-10T02:48:12;19.20;;;6.97;;
40152;SDS011;26371;56.992;23.912;2022-12-10T02:53:11;23.52;;;7.75;;
40152;SDS011;26371;56.992;23.912;2022-12-10T02:55:47;20.50;;;7.50;;
40152;SDS011;26371;56.992;23.912;2022-12-10T02:58:27;20.33;;;7.53;;
40152;SDS011;26371;56.992;23.912;2022-12-10T03:01:06;18.27;;;6.75;;
40152;SDS011;26371;56.992;23.912;2022-12-10T03:03:42;21.60;;;7.72;;
40152;SDS011;26371;56.992;23.912;2022-12-10T03:06:16;19.67;;;7.40;;
40152;SDS011;26371;56.992;23.912;2022-12-10T03:08:51;19.60;;;7.15;;
40152;SDS011;26371;56.992;23.912;2022-12-10T03:11:26;21.10;;;7.82;;
40152;SDS011;26371;56.992;23.912;2022-12-10T03:13:57;21.70;;;6.95;;
40152;SDS011;26371;56.992;23.912;2022-12-10T03:16:31;22.02;;;7.28;;
40152;SDS011;26371;56.992;23.912;2022-12-10T03:19:04;19.55;;;6.63;;
40152;SDS011;26371;56.992;23.912;2022-12-10T03:21:41;19.48;;;7.32;;
40152;SDS011;26371;56.992;23.912;2022-12-10T03:24:11;19.55;;;7.28;;
40152;SDS011;26371;56.992;23.912;2022-12-10T03:26:43;17.90;;;6.75;;
40152;SDS011;26371;56.992;23.912;2022-12-10T03:29:17;17.75;;;5.78;;
40152;SDS011;26371;56.992;23.912;2022-12-10T03:31:51;17.02;;;6.30;;
40152;SDS011;26371;56.992;23.912;2022-12-10T03:34:21;16.48;;;6.68;;
40152;SDS011;26371;56.992;23.912;2022-12-10T03:36:50;20.90;;;6.35;;
40152;SDS011;26371;56.992;23.912;2022-12-10T03:39:20;14.32;;;5.28;;
40152;SDS011;26371;56.992;23.912;2022-12-10T03:41:49;15.52;;;6.07;;
40152;SDS011;26371;56.992;23.912;2022-12-10T03:44:26;15.00;;;5.75;;
40152;SDS011;26371;56.992;23.912;2022-12-10T03:47:01;14.45;;;5.53;;
40152;SDS011;26371;56.992;23.912;2022-12-10T03:49:30;15.55;;;5.35;;
40152;SDS011;26371;56.992;23.912;2022-12-10T03:51:59;13.03;;;5.30;;
40152;SDS011;26371;56.992;23.912;2022-12-10T03:54:28;10.98;;;5.25;;
40152;SDS011;26371;56.992;23.912;2022-12-10T03:56:57;13.88;;;5.25;;
40152;SDS011;26371;56.992;23.912;2022-12-10T03:59:28;13.82;;;4.90;;
40152;SDS011;26371;56.992;23.912;2022-12-10T04:01:57;12.87;;;5.40;;
40152;SDS011;26371;56.992;23.912;2022-12-10T04:04:27;12.55;;;4.68;;
40152;SDS011;26371;56.992;23.912;2022-12-10T04:06:58;12.50;;;4.90;;
40152;SDS011;26371;56.992;23.912;2022-12-10T04:09:26;12.35;;;4.38;;
40152;SDS011;26371;56.992;23.912;2022-12-10T04:11:55;15.45;;;5.25;;
40152;SDS011;26371;56.992;23.912;2022-12-10T04:14:27;13.55;;;5.20;;
40152;SDS011;26371;56.992;23.912;2022-12-10T04:17:15;16.17;;;5.65;;
40152;SDS011;26371;56.992;23.912;2022-12-10T04:19:43;15.60;;;6.10;;
40152;SDS011;26371;56.992;23.912;2022-12-10T04:22:12;17.60;;;5.75;;
40152;SDS011;26371;56.992;23.912;2022-12-10T04:24:58;15.32;;;5.50;;
40152;SDS011;26371;56.992;23.912;2022-12-10T04:27:45;13.90;;;5.50;;
40152;SDS011;26371;56.992;23.912;2022-12-10T04:30:21;12.95;;;5.13;;
40152;SDS011;26371;56.992;23.912;2022-12-10T04:32:52;14.65;;;5.32;;
40152;SDS011;26371;56.992;23.912;2022-12-10T04:35:21;17.40;;;5.68;;
40152;SDS011;26371;56.992;23.912;2022-12-10T04:37:49;15.48;;;6.28;;
40152;SDS011;26371;56.992;23.912;2022-12-10T04:40:18;13.80;;;5.35;;
40152;SDS011;26371;56.992;23.912;2022-12-10T04:42:50;11.90;;;5.30;;
40152;SDS011;26371;56.992;23.912;2022-12-10T04:45:22;10.95;;;5.43;;
40152;SDS011;26371;56.992;23.912;2022-12-10T04:47:52;14.32;;;5.07;;
40152;SDS011;26371;56.992;23.912;2022-12-10T04:50:23;8.82;;;3.65;;
40152;SDS011;26371;56.992;23.912;2022-12-10T04:52:51;9.05;;;3.55;;
40152;SDS011;26371;56.992;23.912;2022-12-10T04:55:20;8.50;;;3.90;;
40152;SDS011;26371;56.992;23.912;2022-12-10T04:57:49;9.38;;;3.22;;
40152;SDS011;26371;56.992;23.912;2022-12-10T05:00:19;8.60;;;3.63;;
40152;SDS011;26371;56.992;23.912;2022-12-10T05:02:50;8.45;;;3.38;;
40152;SDS011;26371;56.992;23.912;2022-12-10T05:05:20;11.18;;;3.90;;
40152;SDS011;26371;56.992;23.912;2022-12-10T05:07:49;10.75;;;4.00;;
40152;SDS011;26371;56.992;23.912;2022-12-10T05:10:17;7.60;;;3.17;;
40152;SDS011;26371;56.992;23.912;2022-12-10T05:12:46;10.02;;;3.72;;
40152;SDS011;26371;56.992;23.912;2022-12-10T05:15:15;6.95;;;2.78;;
40152;SDS011;26371;56.992;23.912;2022-12-10T05:17:43;7.67;;;3.47;;
40152;SDS011;26371;56.992;23.912;2022-12-10T05:20:12;9.60;;;3.58;;
40152;SDS011;26371;56.992;23.912;2022-12-10T05:22:42;10.18;;;3.63;;
40152;SDS011;26371;56.992;23.912;2022-12-10T05:25:29;7.35;;;3.17;;
40152;SDS011;26371;56.992;23.912;2022-12-10T05:28:18;8.05;;;3.83;;
40152;SDS011;26371;56.992;23.912;2022-12-10T05:30:48;9.98;;;3.63;;
40152;SDS011;26371;56.992;23.912;2022-12-10T05:33:17;8.25;;;3.33;;
40152;SDS011;26371;56.992;23.912;2022-12-10T05:35:51;7.35;;;2.72;;
40152;SDS011;26371;56.992;23.912;2022-12-10T05:38:25;8.40;;;3.40;;
40152;SDS011;26371;56.992;23.912;2022-12-10T05:40:55;10.23;;;3.90;;
40152;SDS011;26371;56.992;23.912;2022-12-10T05:43:28;9.32;;;3.58;;
40152;SDS011;26371;56.992;23.912;2022-12-10T05:45:58;7.13;;;2.92;;
40152;SDS011;26371;56.992;23.912;2022-12-10T05:48:28;8.88;;;3.47;;
40152;SDS011;26371;56.992;23.912;2022-12-10T05:50:57;8.48;;;2.95;;
40152;SDS011;26371;56.992;23.912;2022-12-10T05:53:27;7.93;;;2.72;;
40152;SDS011;26371;56.992;23.912;2022-12-10T05:55:59;8.68;;;2.95;;
40152;SDS011;26371;56.992;23.912;2022-12-10T05:58:28;7.50;;;2.35;;
40152;SDS011;26371;56.992;23.912;2022-12-10T06:00:58;9.48;;;3.17;;
40152;SDS011;26371;56.992;23.912;2022-12-10T06:03:27;7.15;;;3.05;;
40152;SDS011;26371;56.992;23.912;2022-12-10T06:05:56;10.25;;;3.67;;
40152;SDS011;26371;56.992;23.912;2022-12-10T06:08:24;7.55;;;2.50;;
40152;SDS011;26371;56.992;23.912;2022-12-10T06:10:54;7.65;;;3.30;;
40152;SDS011;26371;56.992;23.912;2022-12-10T06:15:53;11.48;;;3.58;;
40152;SDS011;26371;56.992;23.912;2022-12-10T06:18:22;8.98;;;3.85;;
40152;SDS011;26371;56.992;23.912;2022-12-10T06:20:50;11.45;;;4.53;;
40152;SDS011;26371;56.992;23.912;2022-12-10T06:23:19;12.20;;;4.68;;
40152;SDS011;26371;56.992;23.912;2022-12-10T06:25:49;11.70;;;4.63;;
40152;SDS011;26371;56.992;23.912;2022-12-10T06:28:19;12.90;;;5.07;;
40152;SDS011;26371;56.992;23.912;2022-12-10T06:30:48;13.40;;;4.57;;
40152;SDS011;26371;56.992;23.912;2022-12-10T06:33:19;14.15;;;5.53;;
40152;SDS011;26371;56.992;23.912;2022-12-10T06:35:47;15.05;;;4.63;;
40152;SDS011;26371;56.992;23.912;2022-12-10T06:38:20;12.30;;;5.07;;
40152;SDS011;26371;56.992;23.912;2022-12-10T06:40:51;17.30;;;6.15;;
40152;SDS011;26371;56.992;23.912;2022-12-10T06:43:20;15.73;;;5.47;;
40152;SDS011;26371;56.992;23.912;2022-12-10T06:45:50;14.48;;;4.82;;
40152;SDS011;26371;56.992;23.912;2022-12-10T06:48:19;17.50;;;5.25;;
40152;SDS011;26371;56.992;23.912;2022-12-10T06:50:48;11.85;;;4.93;;
40152;SDS011;26371;56.992;23.912;2022-12-10T06:53:17;14.13;;;4.60;;
40152;SDS011;26371;56.992;23.912;2022-12-10T06:55:47;16.05;;;4.95;;
40152;SDS011;26371;56.992;23.912;2022-12-10T06:58:17;13.52;;;5.00;;
40152;SDS011;26371;56.992;23.912;2022-12-10T07:00:46;14.90;;;5.20;;
40152;SDS011;26371;56.992;23.912;2022-12-10T07:03:15;12.27;;;5.30;;
40152;SDS011;26371;56.992;23.912;2022-12-10T07:05:44;10.32;;;3.95;;
40152;SDS011;26371;56.992;23.912;2022-12-10T07:08:13;14.52;;;4.75;;
40152;SDS011;26371;56.992;23.912;2022-12-10T07:10:43;15.23;;;4.72;;
40152;SDS011;26371;56.992;23.912;2022-12-10T07:13:12;12.45;;;4.60;;
40152;SDS011;26371;56.992;23.912;2022-12-10T07:15:42;15.70;;;5.93;;
40152;SDS011;26371;56.992;23.912;2022-12-10T07:18:14;16.42;;;5.95;;
40152;SDS011;26371;56.992;23.912;2022-12-10T07:20:42;16.98;;;6.53;;
40152;SDS011;26371;56.992;23.912;2022-12-10T07:23:11;15.48;;;4.22;;
40152;SDS011;26371;56.992;23.912;2022-12-10T07:25:40;14.20;;;4.47;;
40152;SDS011;26371;56.992;23.912;2022-12-10T07:28:08;12.70;;;3.97;;
40152;SDS011;26371;56.992;23.912;2022-12-10T07:30:39;10.43;;;4.38;;
40152;SDS011;26371;56.992;23.912;2022-12-10T07:33:09;12.02;;;4.47;;
40152;SDS011;26371;56.992;23.912;2022-12-10T07:35:40;10.45;;;4.22;;
40152;SDS011;26371;56.992;23.912;2022-12-10T07:38:14;12.95;;;4.20;;
40152;SDS011;26371;56.992;23.912;2022-12-10T07:40:43;11.23;;;3.92;;
40152;SDS011;26371;56.992;23.912;2022-12-10T07:43:12;13.77;;;4.78;;
40152;SDS011;26371;56.992;23.912;2022-12-10T07:45:42;12.85;;;4.97;;
40152;SDS011;26371;56.992;23.912;2022-12-10T07:48:13;10.13;;;4.15;;
40152;SDS011;26371;56.992;23.912;2022-12-10T07:50:41;20.60;;;6.70;;
40152;SDS011;26371;56.992;23.912;2022-12-10T07:53:30;18.33;;;7.10;;
40152;SDS011;26371;56.992;23.912;2022-12-10T07:56:01;21.45;;;7.90;;
40152;SDS011;26371;56.992;23.912;2022-12-10T07:58:33;20.15;;;7.50;;
40152;SDS011;26371;56.992;23.912;2022-12-10T08:01:05;20.48;;;7.03;;
40152;SDS011;26371;56.992;23.912;2022-12-10T08:03:38;21.85;;;7.28;;
40152;SDS011;26371;56.992;23.912;2022-12-10T08:06:10;21.30;;;7.05;;
40152;SDS011;26371;56.992;23.912;2022-12-10T08:08:40;20.40;;;7.00;;
40152;SDS011;26371;56.992;23.912;2022-12-10T08:11:10;18.00;;;6.30;;
40152;SDS011;26371;56.992;23.912;2022-12-10T08:13:40;17.42;;;6.97;;
40152;SDS011;26371;56.992;23.912;2022-12-10T08:16:11;20.35;;;6.85;;
40152;SDS011;26371;56.992;23.912;2022-12-10T08:18:43;24.60;;;7.45;;
40152;SDS011;26371;56.992;23.912;2022-12-10T08:21:13;22.25;;;7.13;;
40152;SDS011;26371;56.992;23.912;2022-12-10T08:23:43;18.40;;;6.38;;
40152;SDS011;26371;56.992;23.912;2022-12-10T08:26:16;21.58;;;7.03;;
40152;SDS011;26371;56.992;23.912;2022-12-10T08:28:47;21.83;;;7.80;;
40152;SDS011;26371;56.992;23.912;2022-12-10T08:33:47;26.98;;;7.68;;
40152;SDS011;26371;56.992;23.912;2022-12-10T08:36:16;21.10;;;6.75;;
40152;SDS011;26371;56.992;23.912;2022-12-10T08:38:51;17.15;;;6.47;;
40152;SDS011;26371;56.992;23.912;2022-12-10T08:41:21;20.33;;;6.90;;
40152;SDS011;26371;56.992;23.912;2022-12-10T08:43:51;17.27;;;6.22;;
40152;SDS011;26371;56.992;23.912;2022-12-10T08:46:23;20.40;;;7.45;;
40152;SDS011;26371;56.992;23.912;2022-12-10T08:48:54;23.83;;;8.13;;
40152;SDS011;26371;56.992;23.912;2022-12-10T08:51:23;24.80;;;7.45;;
40152;SDS011;26371;56.992;23.912;2022-12-10T08:53:52;22.13;;;7.43;;
40152;SDS011;26371;56.992;23.912;2022-12-10T08:56:22;28.80;;;10.68;;
40152;SDS011;26371;56.992;23.912;2022-12-10T08:58:51;26.05;;;9.07;;
40152;SDS011;26371;56.992;23.912;2022-12-10T09:01:20;28.80;;;10.38;;
40152;SDS011;26371;56.992;23.912;2022-12-10T09:03:49;28.15;;;9.77;;
40152;SDS011;26371;56.992;23.912;2022-12-10T09:06:20;30.98;;;11.25;;
40152;SDS011;26371;56.992;23.912;2022-12-10T09:08:51;37.60;;;12.30;;
40152;SDS011;26371;56.992;23.912;2022-12-10T09:11:24;42.88;;;13.63;;
40152;SDS011;26371;56.992;23.912;2022-12-10T09:13:54;38.60;;;12.95;;
40152;SDS011;26371;56.992;23.912;2022-12-10T09:16:27;40.08;;;12.57;;
40152;SDS011;26371;56.992;23.912;2022-12-10T09:18:57;33.45;;;11.85;;
40152;SDS011;26371;56.992;23.912;2022-12-10T09:21:30;28.38;;;10.70;;
40152;SDS011;26371;56.992;23.912;2022-12-10T09:24:00;34.67;;;11.40;;
40152;SDS011;26371;56.992;23.912;2022-12-10T09:26:28;35.58;;;11.40;;
40152;SDS011;26371;56.992;23.912;2022-12-10T09:28:57;29.40;;;10.43;;
40152;SDS011;26371;56.992;23.912;2022-12-10T09:31:26;38.80;;;12.55;;
40152;SDS011;26371;56.992;23.912;2022-12-10T09:33:56;32.03;;;10.43;;
40152;SDS011;26371;56.992;23.912;2022-12-10T09:36:25;30.77;;;10.77;;
40152;SDS011;26371;56.992;23.912;2022-12-10T09:39:01;28.90;;;9.60;;
40152;SDS011;26371;56.992;23.912;2022-12-10T09:41:42;29.08;;;11.13;;
40152;SDS011;26371;56.992;23.912;2022-12-10T09:44:28;34.70;;;10.73;;
40152;SDS011;26371;56.992;23.912;2022-12-10T09:47:02;32.20;;;10.05;;
40152;SDS011;26371;56.992;23.912;2022-12-10T09:49:50;26.33;;;9.18;;
40152;SDS011;26371;56.992;23.912;2022-12-10T09:52:26;25.20;;;9.40;;
40152;SDS011;26371;56.992;23.912;2022-12-10T09:55:11;23.80;;;9.25;;
40152;SDS011;26371;56.992;23.912;2022-12-10T09:57:43;25.63;;;8.40;;
40152;SDS011;26371;56.992;23.912;2022-12-10T10:00:18;26.85;;;9.50;;
40152;SDS011;26371;56.992;23.912;2022-12-10T10:02:49;32.78;;;9.00;;
40152;SDS011;26371;56.992;23.912;2022-12-10T10:05:20;27.25;;;9.38;;
40152;SDS011;26371;56.992;23.912;2022-12-10T10:07:51;29.85;;;10.50;;
40152;SDS011;26371;56.992;23.912;2022-12-10T10:10:28;24.20;;;9.27;;
40152;SDS011;26371;56.992;23.912;2022-12-10T10:12:58;26.17;;;9.57;;
40152;SDS011;26371;56.992;23.912;2022-12-10T10:18:11;28.40;;;10.30;;
40152;SDS011;26371;56.992;23.912;2022-12-10T10:20:45;24.02;;;9.40;;
40152;SDS011;26371;56.992;23.912;2022-12-10T10:23:15;27.70;;;9.60;;
40152;SDS011;26371;56.992;23.912;2022-12-10T10:25:45;29.77;;;10.25;;
40152;SDS011;26371;56.992;23.912;2022-12-10T10:28:16;24.75;;;9.07;;
40152;SDS011;26371;56.992;23.912;2022-12-10T10:30:48;21.88;;;9.18;;
40152;SDS011;26371;56.992;23.912;2022-12-10T10:33:20;28.20;;;8.80;;
40152;SDS011;26371;56.992;23.912;2022-12-10T10:35:54;27.92;;;10.35;;
40152;SDS011;26371;56.992;23.912;2022-12-10T10:38:26;28.48;;;10.07;;
40152;SDS011;26371;56.992;23.912;2022-12-10T10:40:58;29.88;;;9.73;;
40152;SDS011;26371;56.992;23.912;2022-12-10T10:43:33;24.63;;;10.52;;
40152;SDS011;26371;56.992;23.912;2022-12-10T10:46:11;29.77;;;10.50;;
40152;SDS011;26371;56.992;23.912;2022-12-10T10:48:42;28.33;;;10.13;;
40152;SDS011;26371;56.992;23.912;2022-12-10T10:51:15;26.25;;;10.07;;
40152;SDS011;26371;56.992;23.912;2022-12-10T10:53:53;25.77;;;8.07;;
40152;SDS011;26371;56.992;23.912;2022-12-10T10:56:24;27.45;;;9.18;;
40152;SDS011;26371;56.992;23.912;2022-12-10T10:58:58;28.08;;;10.15;;
40152;SDS011;26371;56.992;23.912;2022-12-10T11:01:45;27.88;;;10.07;;
40152;SDS011;26371;56.992;23.912;2022-12-10T11:04:18;26.33;;;9.93;;
40152;SDS011;26371;56.992;23.912;2022-12-10T11:07:02;23.55;;;9.82;;
40152;SDS011;26371;56.992;23.912;2022-12-10T11:09:43;27.85;;;10.65;;
40152;SDS011;26371;56.992;23.912;2022-12-10T11:12:23;29.33;;;9.73;;
40152;SDS011;26371;56.992;23.912;2022-12-10T11:18:00;27.70;;;9.18;;
40152;SDS011;26371;56.992;23.912;2022-12-10T11:20:31;25.33;;;9.85;;
40152;SDS011;26371;56.992;23.912;2022-12-10T11:23:08;31.85;;;10.38;;
40152;SDS011;26371;56.992;23.912;2022-12-10T11:25:45;23.42;;;9.45;;
40152;SDS011;26371;56.992;23.912;2022-12-10T11:28:26;25.73;;;9.95;;
40152;SDS011;26371;56.992;23.912;2022-12-10T11:31:13;28.90;;;12.27;;
40152;SDS011;26371;56.992;23.912;2022-12-10T11:34:03;27.95;;;11.65;;
40152;SDS011;26371;56.992;23.912;2022-12-10T11:36:46;22.33;;;8.45;;
40152;SDS011;26371;56.992;23.912;2022-12-10T11:39:28;21.85;;;8.15;;
40152;SDS011;26371;56.992;23.912;2022-12-10T11:42:14;19.77;;;8.18;;
40152;SDS011;26371;56.992;23.912;2022-12-10T11:44:56;16.05;;;7.20;;
40152;SDS011;26371;56.992;23.912;2022-12-10T11:47:39;18.63;;;7.00;;
40152;SDS011;26371;56.992;23.912;2022-12-10T11:50:26;15.88;;;7.35;;
40152;SDS011;26371;56.992;23.912;2022-12-10T11:53:02;19.38;;;8.48;;
40152;SDS011;26371;56.992;23.912;2022-12-10T11:55:46;22.45;;;8.70;;
40152;SDS011;26371;56.992;23.912;2022-12-10T11:58:26;20.85;;;8.75;;
40152;SDS011;26371;56.992;23.912;2022-12-10T12:01:16;24.55;;;8.00;;
40152;SDS011;26371;56.992;23.912;2022-12-10T12:09:46;22.70;;;8.40;;
40152;SDS011;26371;56.992;23.912;2022-12-10T12:12:30;22.55;;;8.38;;
40152;SDS011;26371;56.992;23.912;2022-12-10T12:15:13;25.48;;;9.63;;
40152;SDS011;26371;56.992;23.912;2022-12-10T12:17:49;21.48;;;8.55;;
40152;SDS011;26371;56.992;23.912;2022-12-10T12:20:22;22.55;;;8.15;;
40152;SDS011;26371;56.992;23.912;2022-12-10T12:22:58;22.63;;;8.75;;
40152;SDS011;26371;56.992;23.912;2022-12-10T12:25:34;22.80;;;8.35;;
40152;SDS011;26371;56.992;23.912;2022-12-10T12:28:09;20.33;;;8.90;;
40152;SDS011;26371;56.992;23.912;2022-12-10T12:30:43;23.80;;;9.93;;
40152;SDS011;26371;56.992;23.912;2022-12-10T12:33:20;22.75;;;9.95;;
40152;SDS011;26371;56.992;23.912;2022-12-10T12:36:00;24.13;;;9.02;;
40152;SDS011;26371;56.992;23.912;2022-12-10T12:38:43;23.98;;;9.90;;
40152;SDS011;26371;56.992;23.912;2022-12-10T12:41:23;25.10;;;10.27;;
40152;SDS011;26371;56.992;23.912;2022-12-10T12:43:59;19.80;;;8.05;;
40152;SDS011;26371;56.992;23.912;2022-12-10T12:46:33;20.80;;;9.25;;
40152;SDS011;26371;56.992;23.912;2022-12-10T12:49:16;23.30;;;8.52;;
40152;SDS011;26371;56.992;23.912;2022-12-10T12:51:53;20.08;;;9.00;;
40152;SDS011;26371;56.992;23.912;2022-12-10T12:54:32;18.35;;;8.55;;
40152;SDS011;26371;56.992;23.912;2022-12-10T12:57:06;22.58;;;9.25;;
40152;SDS011;26371;56.992;23.912;2022-12-10T12:59:47;18.48;;;8.98;;
40152;SDS011;26371;56.992;23.912;2022-12-10T13:02:57;19.02;;;7.40;;
40152;SDS011;26371;56.992;23.912;2022-12-10T13:05:36;20.55;;;9.15;;
40152;SDS011;26371;56.992;23.912;2022-12-10T13:08:21;18.30;;;8.13;;
40152;SDS011;26371;56.992;23.912;2022-12-10T13:13:31;21.88;;;8.35;;
40152;SDS011;26371;56.992;23.912;2022-12-10T13:22:06;21.73;;;9.93;;
40152;SDS011;26371;56.992;23.912;2022-12-10T13:24:45;20.60;;;9.45;;
40152;SDS011;26371;56.992;23.912;2022-12-10T13:27:29;19.80;;;7.90;;
40152;SDS011;26371;56.992;23.912;2022-12-10T13:30:02;21.48;;;9.13;;
40152;SDS011;26371;56.992;23.912;2022-12-10T13:32:53;22.00;;;8.95;;
40152;SDS011;26371;56.992;23.912;2022-12-10T13:35:31;17.85;;;8.23;;
40152;SDS011;26371;56.992;23.912;2022-12-10T13:38:18;19.15;;;8.32;;
40152;SDS011;26371;56.992;23.912;2022-12-10T13:40:56;20.40;;;9.15;;
40152;SDS011;26371;56.992;23.912;2022-12-10T13:43:55;21.43;;;9.60;;
40152;SDS011;26371;56.992;23.912;2022-12-10T13:46:54;19.58;;;8.82;;
40152;SDS011;26371;56.992;23.912;2022-12-10T13:49:27;23.25;;;9.55;;
40152;SDS011;26371;56.992;23.912;2022-12-10T13:51:58;24.83;;;10.45;;
40152;SDS011;26371;56.992;23.912;2022-12-10T14:00:54;23.20;;;9.55;;
40152;SDS011;26371;56.992;23.912;2022-12-10T14:06:38;19.67;;;9.05;;
40152;SDS011;26371;56.992;23.912;2022-12-10T14:09:11;20.67;;;9.18;;
40152;SDS011;26371;56.992;23.912;2022-12-10T14:11:47;23.95;;;9.75;;
40152;SDS011;26371;56.992;23.912;2022-12-10T14:14:26;22.40;;;9.57;;
40152;SDS011;26371;56.992;23.912;2022-12-10T14:17:00;23.75;;;10.07;;
40152;SDS011;26371;56.992;23.912;2022-12-10T14:19:32;22.45;;;9.60;;
40152;SDS011;26371;56.992;23.912;2022-12-10T14:22:04;20.63;;;9.65;;
40152;SDS011;26371;56.992;23.912;2022-12-10T14:24:35;25.58;;;9.18;;
40152;SDS011;26371;56.992;23.912;2022-12-10T14:27:13;22.80;;;9.43;;
40152;SDS011;26371;56.992;23.912;2022-12-10T14:29:43;25.70;;;10.07;;
40152;SDS011;26371;56.992;23.912;2022-12-10T14:32:17;22.33;;;9.48;;
40152;SDS011;26371;56.992;23.912;2022-12-10T14:34:48;21.45;;;8.75;;
40152;SDS011;26371;56.992;23.912;2022-12-10T14:37:24;21.85;;;9.77;;
40152;SDS011;26371;56.992;23.912;2022-12-10T14:39:55;25.92;;;11.18;;
40152;SDS011;26371;56.992;23.912;2022-12-10T14:42:24;22.42;;;10.27;;
40152;SDS011;26371;56.992;23.912;2022-12-10T14:44:56;24.33;;;9.48;;
40152;SDS011;26371;56.992;23.912;2022-12-10T14:47:28;25.30;;;10.50;;
40152;SDS011;26371;56.992;23.912;2022-12-10T14:50:14;21.48;;;9.68;;
40152;SDS011;26371;56.992;23.912;2022-12-10T14:52:45;28.58;;;10.98;;
40152;SDS011;26371;56.992;23.912;2022-12-10T14:55:19;23.70;;;9.23;;
40152;SDS011;26371;56.992;23.912;2022-12-10T14:57:51;23.27;;;11.05;;
40152;SDS011;26371;56.992;23.912;2022-12-10T15:00:24;28.10;;;11.43;;
40152;SDS011;26371;56.992;23.912;2022-12-10T15:02:54;24.85;;;10.73;;
40152;SDS011;26371;56.992;23.912;2022-12-10T15:05:31;23.88;;;10.70;;
40152;SDS011;26371;56.992;23.912;2022-12-10T15:08:04;25.63;;;11.02;;
40152;SDS011;26371;56.992;23.912;2022-12-10T15:10:42;26.48;;;11.00;;
40152;SDS011;26371;56.992;23.912;2022-12-10T15:13:16;25.77;;;11.93;;
40152;SDS011;26371;56.992;23.912;2022-12-10T15:15:49;26.75;;;11.57;;
40152;SDS011;26371;56.992;23.912;2022-12-10T15:20:54;22.25;;;10.38;;
40152;SDS011;26371;56.992;23.912;2022-12-10T15:23:32;29.55;;;12.35;;
40152;SDS011;26371;56.992;23.912;2022-12-10T15:26:03;24.77;;;11.85;;
40152;SDS011;26371;56.992;23.912;2022-12-10T15:28:41;29.40;;;11.73;;
40152;SDS011;26371;56.992;23.912;2022-12-10T15:31:11;34.33;;;13.80;;
40152;SDS011;26371;56.992;23.912;2022-12-10T15:33:47;31.63;;;13.23;;
40152;SDS011;26371;56.992;23.912;2022-12-10T15:36:23;26.00;;;13.30;;
40152;SDS011;26371;56.992;23.912;2022-12-10T15:38:57;30.65;;;13.48;;
40152;SDS011;26371;56.992;23.912;2022-12-10T15:41:34;35.03;;;15.10;;